Time;durP1;ratioP1;P1;durP2;ratioP2;P2;SDS_P1;SDS_P2;PMS_P1;PMS_P2;Temp;Humidity;BMP_temperature;BMP_pressure;BME280_temperature;BME280_humidity;BME280_pressure;Samples;Min_cycle;Max_cycle;Signal;HPM_P1;HPM_P2
2022/11/18 00:00:45;;;;;;;9.18;3.67;;;;;;;7.34;100.00;99459.34;4926790;29;20044;-74
2022/11/18 00:03:11;;;;;;;10.73;3.72;;;;;;;7.45;100.00;99461.22;4926784;29;20039;-75
2022/11/18 00:05:36;;;;;;;10.90;3.85;;;;;;;7.48;100.00;99467.16;4926593;29;20043;-74
2022/11/18 00:08:01;;;;;;;8.65;3.75;;;;;;;7.48;100.00;99463.63;4926742;29;20035;-74
2022/11/18 00:10:27;;;;;;;7.03;3.50;;;;;;;7.46;100.00;99463.75;4926320;29;20048;-74
2022/11/18 00:15:36;;;;;;;7.50;3.35;;;;;;;7.65;100.00;99473.03;4927595;29;20044;-75
2022/11/18 00:18:02;;;;;;;10.15;3.33;;;;;;;7.64;100.00;99474.00;4908329;29;20058;-73
2022/11/18 00:20:27;;;;;;;11.27;3.55;;;;;;;7.65;100.00;99479.19;4927080;29;20061;-73
2022/11/18 00:22:53;;;;;;;12.55;4.45;;;;;;;7.66;100.00;99482.69;4926824;29;20074;-77
2022/11/18 00:25:18;;;;;;;15.23;3.42;;;;;;;7.73;100.00;99486.56;4909959;29;20062;-74
2022/11/18 00:27:44;;;;;;;8.63;3.35;;;;;;;7.68;100.00;99488.72;4940108;29;20047;-74
2022/11/18 00:30:10;;;;;;;12.90;3.60;;;;;;;7.76;100.00;99495.16;4940940;29;20401;-74
2022/11/18 00:32:35;;;;;;;8.20;2.80;;;;;;;7.78;100.00;99495.91;4939371;29;20043;-74
2022/11/18 00:35:01;;;;;;;18.60;3.47;;;;;;;7.78;100.00;99497.69;4946144;29;20043;-74
2022/11/18 00:37:26;;;;;;;11.18;3.72;;;;;;;7.82;100.00;99504.47;4917528;29;20055;-73
2022/11/18 00:39:51;;;;;;;12.73;5.15;;;;;;;7.86;100.00;99508.59;4925955;29;20039;-74
2022/11/18 00:45:01;;;;;;;12.07;4.00;;;;;;;7.88;100.00;99504.03;4926585;29;20047;-74
2022/11/18 00:47:26;;;;;;;7.78;3.25;;;;;;;7.92;100.00;99515.25;4908840;29;20150;-74
2022/11/18 00:49:52;;;;;;;7.50;3.47;;;;;;;7.95;100.00;99513.22;4926269;29;20071;-74
2022/11/18 00:52:17;;;;;;;10.60;3.38;;;;;;;7.98;100.00;99512.16;4926464;29;20043;-74
2022/11/18 00:54:42;;;;;;;10.05;3.45;;;;;;;7.94;100.00;99513.34;4926383;29;20024;-74
2022/11/18 00:57:08;;;;;;;14.60;3.92;;;;;;;7.87;100.00;99518.25;4925408;29;20051;-74
2022/11/18 00:59:33;;;;;;;6.63;3.17;;;;;;;7.88;100.00;99516.44;4926021;29;20044;-74
2022/11/18 01:01:59;;;;;;;11.93;3.28;;;;;;;7.81;100.00;99517.84;4922077;29;20039;-74
2022/11/18 01:04:24;;;;;;;10.00;3.92;;;;;;;7.75;100.00;99522.66;4926076;29;20044;-74
2022/11/18 01:06:50;;;;;;;11.15;4.25;;;;;;;7.75;100.00;99527.13;4925907;29;20090;-74
2022/11/18 01:09:15;;;;;;;6.53;3.17;;;;;;;7.73;100.00;99526.38;4908538;29;20054;-75
2022/11/18 01:14:24;;;;;;;12.32;4.53;;;;;;;7.76;100.00;99542.06;4926328;29;20385;-74
2022/11/18 01:16:54;;;;;;;10.23;3.00;;;;;;;7.75;100.00;99535.06;4926090;29;20036;-74
2022/11/18 01:19:19;;;;;;;4.13;2.95;;;;;;;7.69;100.00;99540.84;4926000;29;20467;-74
2022/11/18 01:21:45;;;;;;;10.70;4.65;;;;;;;7.66;100.00;99531.28;4926325;29;20040;-74
2022/11/18 01:24:11;;;;;;;12.93;3.33;;;;;;;7.72;100.00;99529.97;4908602;29;20626;-74
2022/11/18 01:26:36;;;;;;;13.15;3.47;;;;;;;7.74;100.00;99536.88;4926210;29;20047;-74
2022/11/18 01:29:02;;;;;;;7.80;2.97;;;;;;;7.72;100.00;99540.59;4925707;29;20047;-74
2022/11/18 01:31:27;;;;;;;10.15;3.60;;;;;;;7.71;100.00;99544.22;4930349;29;20058;-74
2022/11/18 01:33:53;;;;;;;10.02;3.33;;;;;;;7.77;100.00;99534.00;4935997;29;20052;-74
2022/11/18 01:36:21;;;;;;;8.95;3.10;;;;;;;7.77;100.00;99541.09;4928299;29;20047;-74
2022/11/18 01:38:47;;;;;;;14.65;4.00;;;;;;;7.74;100.00;99544.84;4936928;29;20075;-74
2022/11/18 01:41:14;;;;;;;10.18;3.40;;;;;;;7.82;100.00;99548.75;4939059;29;20035;-75
2022/11/18 01:44:23;;;;;;;8.18;3.40;;;;;;;7.76;100.00;99550.88;4925591;29;20544;-73
2022/11/18 01:46:49;;;;;;;11.18;3.90;;;;;;;7.76;100.00;99555.34;4923996;29;20058;-75
2022/11/18 01:49:14;;;;;;;12.57;3.70;;;;;;;7.81;100.00;99547.06;4925411;29;20054;-74
2022/11/18 01:51:56;;;;;;;9.43;3.67;;;;;;;7.77;100.00;99557.88;4924617;29;20043;-74
2022/11/18 01:54:41;;;;;;;13.25;4.47;;;;;;;7.84;100.00;99560.94;4923736;29;20649;-73
2022/11/18 01:57:21;;;;;;;10.10;3.65;;;;;;;7.83;100.00;99553.97;4923513;29;20043;-75
2022/11/18 01:59:51;;;;;;;9.07;3.45;;;;;;;7.93;100.00;99554.09;4923274;29;20169;-74
2022/11/18 02:02:17;;;;;;;17.88;3.63;;;;;;;7.93;100.00;99559.41;4911409;29;20074;-74
2022/11/18 02:04:47;;;;;;;17.98;3.80;;;;;;;7.94;100.00;99561.97;4907186;29;20134;-74
2022/11/18 02:07:13;;;;;;;7.40;4.13;;;;;;;7.95;100.00;99560.16;4924300;29;20059;-74
2022/11/18 02:09:39;;;;;;;11.02;3.45;;;;;;;7.94;100.00;99571.75;4907240;29;20731;-74
2022/11/18 02:12:06;;;;;;;5.55;3.67;;;;;;;7.94;100.00;99572.59;4918966;29;20039;-73
2022/11/18 02:14:36;;;;;;;12.85;3.85;;;;;;;7.88;100.00;99577.47;4938326;29;20059;-74
2022/11/18 02:17:35;;;;;;;8.43;3.35;;;;;;;7.94;100.00;99577.91;4935271;29;20039;-74
2022/11/18 02:20:27;;;;;;;11.50;3.80;;;;;;;7.87;100.00;99584.59;4920904;29;20122;-74
2022/11/18 02:23:17;;;;;;;15.35;4.55;;;;;;;7.89;100.00;99582.69;4927643;29;20171;-74
2022/11/18 02:25:51;;;;;;;12.43;4.07;;;;;;;7.86;100.00;99593.53;4934698;28;20052;-73
2022/11/18 02:28:45;;;;;;;7.68;3.70;;;;;;;7.77;100.00;99597.69;4924841;29;20078;-74
2022/11/18 02:31:22;;;;;;;12.35;3.50;;;;;;;7.83;100.00;99595.53;4925987;29;20050;-75
2022/11/18 02:33:54;;;;;;;11.02;3.80;;;;;;;7.82;100.00;99601.81;4925769;29;20043;-73
2022/11/18 02:36:25;;;;;;;10.10;3.70;;;;;;;7.82;100.00;99604.47;4939857;29;20484;-74
2022/11/18 02:38:58;;;;;;;9.55;4.22;;;;;;;7.76;100.00;99616.38;4925027;29;20055;-74
2022/11/18 02:41:28;;;;;;;12.18;3.67;;;;;;;7.75;100.00;99607.56;4931721;29;20099;-74
2022/11/18 02:44:01;;;;;;;8.88;4.18;;;;;;;7.64;100.00;99611.94;4919612;29;20226;-74
2022/11/18 02:46:31;;;;;;;12.93;4.60;;;;;;;7.76;100.00;99611.06;4942180;29;20039;-74
2022/11/18 02:48:59;;;;;;;7.63;4.13;;;;;;;7.80;100.00;99607.25;4928253;29;20056;-74
2022/11/18 02:51:28;;;;;;;9.35;4.63;;;;;;;7.71;100.00;99611.38;4927889;29;20047;-74
2022/11/18 02:54:02;;;;;;;10.48;3.80;;;;;;;7.70;100.00;99611.50;4910557;29;20043;-74
2022/11/18 02:56:32;;;;;;;12.20;4.78;;;;;;;7.74;100.00;99613.00;4930962;29;20039;-74
2022/11/18 02:58:57;;;;;;;9.73;3.78;;;;;;;7.74;100.00;99608.53;4947419;29;20053;-74
2022/11/18 03:01:26;;;;;;;12.98;4.60;;;;;;;7.77;100.00;99618.06;4932724;29;20063;-74
2022/11/18 03:03:52;;;;;;;9.43;3.40;;;;;;;7.84;100.00;99619.34;4911048;29;20048;-75
2022/11/18 03:06:29;;;;;;;9.13;4.00;;;;;;;7.77;100.00;99616.25;4928118;29;20040;-75
2022/11/18 03:09:03;;;;;;;15.82;4.60;;;;;;;7.83;100.00;99622.97;4897892;29;20039;-73
2022/11/18 03:11:33;;;;;;;14.35;4.30;;;;;;;7.85;100.00;99625.50;4910843;29;20050;-73
2022/11/18 03:14:08;;;;;;;9.75;3.72;;;;;;;7.91;100.00;99631.19;4915356;29;20834;-74
2022/11/18 03:16:44;;;;;;;14.98;4.47;;;;;;;7.93;100.00;99631.06;4928242;29;20097;-74
2022/11/18 03:19:12;;;;;;;8.85;4.40;;;;;;;7.98;100.00;99628.94;4927632;29;20146;-74
2022/11/18 03:21:50;;;;;;;11.93;4.53;;;;;;;7.93;100.00;99637.25;4927713;29;20051;-75
2022/11/18 03:24:23;;;;;;;9.52;4.68;;;;;;;7.88;100.00;99639.41;4927924;29;20050;-74
2022/11/18 03:26:51;;;;;;;;;;;;;;;7.88;100.00;99641.19;4928392;29;20090;-74
2022/11/18 03:29:22;;;;;;;7.57;3.55;;;;;;;7.87;100.00;99650.94;4927822;29;19925;-75
2022/11/18 03:32:09;;;;;;;9.00;3.30;;;;;;;7.89;100.00;99653.50;4939532;29;20043;-74
2022/11/18 03:34:41;;;;;;;8.38;3.90;;;;;;;7.89;100.00;99645.56;4882779;29;20036;-74
2022/11/18 03:37:10;;;;;;;10.68;4.07;;;;;;;7.95;100.00;99653.06;4927099;29;20436;-75
2022/11/18 03:39:40;;;;;;;13.50;3.95;;;;;;;7.92;100.00;99647.97;4923556;29;20593;-74
2022/11/18 03:42:11;;;;;;;11.82;3.55;;;;;;;7.95;100.00;99659.22;4927554;29;20048;-74
2022/11/18 03:44:42;;;;;;;6.80;4.47;;;;;;;7.96;100.00;99663.56;4927210;29;20039;-74
2022/11/18 03:47:17;;;;;;;12.57;4.45;;;;;;;8.09;100.00;99665.34;4910227;29;20517;-74
2022/11/18 03:49:49;;;;;;;7.80;3.72;;;;;;;8.11;100.00;99666.09;4927407;29;20114;-74
2022/11/18 03:52:19;;;;;;;12.95;5.03;;;;;;;8.01;100.00;99671.19;4911754;29;20458;-74
2022/11/18 03:54:47;;;;;;;14.68;4.80;;;;;;;8.07;100.00;99675.22;4927127;29;20046;-73
2022/11/18 03:57:21;;;;;;;7.90;3.60;;;;;;;8.17;100.00;99677.09;4937973;29;20463;-74
2022/11/18 03:59:52;;;;;;;9.23;4.20;;;;;;;8.16;100.00;99671.91;4928898;29;20044;-74
2022/11/18 04:02:21;;;;;;;10.05;3.75;;;;;;;8.11;100.00;99685.50;4941846;29;20047;-75
2022/11/18 04:04:49;;;;;;;9.00;3.85;;;;;;;8.16;100.00;99682.53;4927084;29;20043;-74
2022/11/18 04:07:49;;;;;;;10.35;4.07;;;;;;;8.15;100.00;99687.00;4927546;29;20047;-75
2022/11/18 04:10:23;;;;;;;11.95;4.68;;;;;;;8.18;100.00;99696.53;4895341;29;20150;-74
2022/11/18 04:13:04;;;;;;;12.18;5.03;;;;;;;8.17;100.00;99695.69;4909989;29;20043;-74
2022/11/18 04:15:31;;;;;;;17.45;5.00;;;;;;;8.19;100.00;99703.56;4927126;29;20043;-74
2022/11/18 04:17:57;;;;;;;12.77;4.93;;;;;;;8.20;100.00;99700.78;4926329;29;20044;-74
2022/11/18 04:20:24;;;;;;;14.25;4.10;;;;;;;8.24;100.00;99706.75;4909202;29;20159;-74
2022/11/18 04:22:49;;;;;;;10.13;4.25;;;;;;;8.19;100.00;99711.53;4926434;29;20411;-74
2022/11/18 04:25:15;;;;;;;9.93;4.25;;;;;;;8.20;100.00;99713.22;4929797;29;20043;-74
2022/11/18 04:27:40;;;;;;;9.57;4.30;;;;;;;8.23;100.00;99715.63;4918954;29;20058;-75
2022/11/18 04:30:07;;;;;;;11.23;4.30;;;;;;;8.10;100.00;99721.00;4927729;29;20476;-76
2022/11/18 04:32:33;;;;;;;18.48;5.20;;;;;;;8.13;100.00;99725.22;4938296;29;20613;-75
2022/11/18 04:34:58;;;;;;;12.05;4.35;;;;;;;8.12;100.00;99718.22;4940937;29;20042;-75
2022/11/18 04:37:24;;;;;;;13.73;5.57;;;;;;;8.13;100.00;99731.38;4940054;29;20688;-75
2022/11/18 04:39:49;;;;;;;12.00;4.57;;;;;;;8.11;100.00;99730.66;4933834;29;20031;-74
2022/11/18 04:42:15;;;;;;;7.68;4.10;;;;;;;8.18;100.00;99728.41;4914756;29;20649;-75
2022/11/18 04:44:40;;;;;;;15.98;4.85;;;;;;;8.15;100.00;99728.63;4925921;29;20716;-74
2022/11/18 04:47:06;;;;;;;11.52;4.70;;;;;;;8.15;100.00;99732.13;4926724;29;20039;-74
2022/11/18 04:49:34;;;;;;;13.93;4.93;;;;;;;8.10;100.00;99736.94;4926375;29;20480;-74
2022/11/18 04:52:00;;;;;;;11.85;4.72;;;;;;;8.10;100.00;99731.63;4889891;29;20090;-74
2022/11/18 04:54:26;;;;;;;9.85;5.38;;;;;;;8.15;100.00;99741.91;4924777;29;20122;-74
2022/11/18 04:56:55;;;;;;;18.52;5.60;;;;;;;8.06;100.00;99738.09;4937111;29;20527;-75
2022/11/18 04:59:26;;;;;;;9.38;4.95;;;;;;;8.08;100.00;99743.28;4908364;29;20043;-75
2022/11/18 05:01:52;;;;;;;14.85;5.22;;;;;;;7.98;100.00;99745.75;4908449;29;20166;-76
2022/11/18 05:04:20;;;;;;;15.05;5.10;;;;;;;8.01;100.00;99748.19;4933201;28;20040;-76
2022/11/18 05:06:46;;;;;;;10.07;5.50;;;;;;;7.93;100.00;99751.41;4925837;29;20583;-76
2022/11/18 05:09:12;;;;;;;12.57;4.88;;;;;;;7.93;100.00;99754.06;4932776;29;20122;-74
2022/11/18 05:14:27;;;;;;;19.00;6.00;;;;;;;7.87;100.00;99762.41;4926438;29;20579;-74
2022/11/18 05:16:54;;;;;;;12.27;5.10;;;;;;;7.93;100.00;99761.13;4909195;29;20130;-74
2022/11/18 05:19:19;;;;;;;11.20;5.82;;;;;;;7.88;100.00;99764.13;4913414;29;20060;-74
2022/11/18 05:21:45;;;;;;;16.55;6.15;;;;;;;7.81;100.00;99768.16;4913868;29;20032;-76
2022/11/18 05:24:10;;;;;;;16.90;6.10;;;;;;;7.84;100.00;99760.00;4906657;29;20040;-75
2022/11/18 05:26:36;;;;;;;15.13;6.13;;;;;;;7.86;100.00;99771.34;4906669;29;20103;-74
2022/11/18 05:29:01;;;;;;;18.88;7.20;;;;;;;7.82;100.00;99775.16;4906470;29;20061;-74
2022/11/18 05:31:27;;;;;;;24.75;6.90;;;;;;;7.80;100.00;99774.44;4906411;29;20086;-74
2022/11/18 05:33:52;;;;;;;20.20;6.60;;;;;;;7.83;100.00;99776.00;4905199;29;20043;-75
2022/11/18 05:36:19;;;;;;;20.55;7.28;;;;;;;7.83;100.00;99783.97;4906617;29;20040;-74
2022/11/18 05:38:45;;;;;;;19.88;7.15;;;;;;;7.78;100.00;99778.97;4906784;29;20658;-75
2022/11/18 05:43:09;;;;;;;22.83;7.40;;;;;;;7.82;100.00;99785.78;4906608;29;20064;-75
2022/11/18 05:43:57;;;;;;;24.55;7.95;;;;;;;7.88;100.00;99790.69;4905983;29;20050;-74
2022/11/18 05:46:22;;;;;;;16.73;7.10;;;;;;;7.90;100.00;99786.09;4910812;29;20115;-75
2022/11/18 05:48:48;;;;;;;16.13;7.10;;;;;;;7.94;100.00;99790.25;4905769;29;20066;-74
2022/11/18 05:51:13;;;;;;;24.25;8.65;;;;;;;7.87;100.00;99794.25;4905112;29;20059;-74
2022/11/18 05:53:39;;;;;;;16.42;6.65;;;;;;;7.86;100.00;99797.88;4905852;29;20043;-75
2022/11/18 05:56:16;;;;;;;19.20;7.97;;;;;;;7.90;100.00;99802.03;4912145;29;20047;-75
2022/11/18 05:58:42;;;;;;;19.58;8.25;;;;;;;8.01;100.00;99799.47;4903612;29;20781;-74
2022/11/18 06:01:09;;;;;;;19.60;7.90;;;;;;;7.97;100.00;99799.78;4904597;29;20047;-74
2022/11/18 06:03:38;;;;;;;21.98;7.75;;;;;;;8.05;100.00;99800.97;4916531;29;20055;-75
2022/11/18 06:06:06;;;;;;;22.58;8.77;;;;;;;7.99;100.00;99804.06;4911310;29;20039;-74
2022/11/18 06:08:36;;;;;;;21.23;8.13;;;;;;;7.95;100.00;99807.03;4907447;29;20087;-73
2022/11/18 06:11:02;;;;;;;16.63;7.28;;;;;;;7.92;100.00;99810.72;4919752;29;20039;-74
2022/11/18 06:13:36;;;;;;;17.83;8.05;;;;;;;7.93;100.00;99814.22;4915522;29;20107;-73
2022/11/18 06:16:02;;;;;;;20.25;8.55;;;;;;;7.87;100.00;99812.84;4914758;29;20071;-74
2022/11/18 06:18:30;;;;;;;21.83;8.40;;;;;;;7.89;100.00;99818.91;4917587;29;20044;-74
2022/11/18 06:21:03;;;;;;;15.32;7.43;;;;;;;7.88;100.00;99822.53;4931434;29;20051;-75
2022/11/18 06:23:29;;;;;;;;;;;;;;;7.97;100.00;99834.28;4940225;29;20051;-74
2022/11/18 06:25:55;;;;;;;15.23;7.57;;;;;;;7.98;100.00;99834.22;4935791;29;19926;-75
2022/11/18 06:28:22;;;;;;;25.80;8.32;;;;;;;7.84;100.00;99839.63;4932999;29;20113;-74
2022/11/18 06:30:47;;;;;;;18.13;7.88;;;;;;;7.86;100.00;99836.84;4933906;29;20050;-74
2022/11/18 06:33:13;;;;;;;24.60;8.30;;;;;;;7.93;100.00;99846.06;4935514;29;20048;-74
2022/11/18 06:35:38;;;;;;;17.70;7.32;;;;;;;7.92;100.00;99849.69;4898904;29;20035;-73
2022/11/18 06:38:04;;;;;;;20.13;8.70;;;;;;;7.99;100.00;99848.34;4929341;29;20070;-74
2022/11/18 06:40:29;;;;;;;17.80;8.00;;;;;;;7.96;100.00;99859.16;4929117;29;20036;-74
2022/11/18 06:46:54;;;;;;;28.70;11.32;;;;;;;7.95;100.00;99860.13;4910011;29;20578;-74
2022/11/18 06:48:24;;;;;;;18.33;8.52;;;;;;;7.84;100.00;99870.63;4921800;29;20451;-74
2022/11/18 06:50:50;;;;;;;27.60;8.23;;;;;;;7.85;100.00;99872.31;4914499;29;20035;-74
2022/11/18 06:53:17;;;;;;;14.15;8.38;;;;;;;7.88;100.00;99875.63;4913140;29;20032;-74
2022/11/18 06:55:43;;;;;;;32.92;8.50;;;;;;;7.83;100.00;99872.44;4913358;29;20575;-74
2022/11/18 06:58:08;;;;;;;18.85;7.70;;;;;;;7.66;100.00;99880.66;4928240;29;21387;-74
2022/11/18 07:00:34;;;;;;;23.35;8.88;;;;;;;7.65;100.00;99884.25;4933993;29;20039;-74
2022/11/18 07:03:01;;;;;;;18.15;8.05;;;;;;;7.56;100.00;99895.47;4913325;29;20059;-74
2022/11/18 07:05:26;;;;;;;19.33;8.30;;;;;;;7.50;100.00;99902.03;4934812;29;20038;-74
2022/11/18 07:07:52;;;;;;;22.90;9.27;;;;;;;7.43;100.00;99906.03;4933028;29;20040;-74
2022/11/18 07:10:17;;;;;;;23.75;9.10;;;;;;;7.41;100.00;99900.84;4911236;29;20027;-74
2022/11/18 07:12:43;;;;;;;21.65;8.80;;;;;;;7.33;100.00;99919.06;4929548;29;20047;-74
2022/11/18 07:15:08;;;;;;;18.10;8.35;;;;;;;7.44;100.00;99913.06;4930762;29;20043;-74
2022/11/18 07:17:34;;;;;;;21.52;8.55;;;;;;;7.39;100.00;99920.47;4927668;29;20086;-73
2022/11/18 07:19:59;;;;;;;25.25;9.90;;;;;;;7.13;100.00;99915.06;4927045;29;20051;-73
2022/11/18 07:22:25;;;;;;;20.23;8.13;;;;;;;7.24;100.00;99930.25;4932716;29;20050;-74
2022/11/18 07:24:50;;;;;;;20.48;8.40;;;;;;;7.23;100.00;99931.22;4933923;29;20044;-74
2022/11/18 07:27:15;;;;;;;12.02;7.47;;;;;;;7.27;100.00;99936.19;4927790;29;20116;-74
2022/11/18 07:29:41;;;;;;;15.98;7.35;;;;;;;7.30;100.00;99948.44;4938327;29;20131;-74
2022/11/18 07:32:06;;;;;;;17.80;8.82;;;;;;;7.26;100.00;99946.91;4940610;29;20048;-74
2022/11/18 07:34:32;;;;;;;19.85;9.18;;;;;;;7.25;100.00;99951.38;4927338;29;20047;-73
2022/11/18 07:36:57;;;;;;;22.98;9.07;;;;;;;7.14;100.00;99943.25;4929114;29;20031;-73
2022/11/18 07:39:23;;;;;;;20.27;8.65;;;;;;;7.31;100.00;99952.78;4927457;29;20392;-73
2022/11/18 07:41:48;;;;;;;16.65;8.20;;;;;;;7.29;100.00;99952.03;4926957;29;20688;-73
2022/11/18 07:44:16;;;;;;;14.88;6.95;;;;;;;7.18;100.00;99950.06;4927088;29;20036;-73
2022/11/18 07:46:41;;;;;;;18.55;8.32;;;;;;;7.29;100.00;99962.63;4909312;29;20031;-74
2022/11/18 07:49:08;;;;;;;19.30;8.07;;;;;;;7.39;100.00;99960.25;4909713;29;20452;-74
2022/11/18 07:51:36;;;;;;;26.85;9.85;;;;;;;7.47;100.00;99958.78;4926737;29;20122;-74
2022/11/18 07:54:13;;;;;;;17.50;8.48;;;;;;;7.57;100.00;99966.16;4926917;29;20130;-73
2022/11/18 07:56:38;;;;;;;22.88;7.90;;;;;;;7.54;100.00;99969.88;4926453;29;20051;-74
2022/11/18 07:59:04;;;;;;;15.93;7.93;;;;;;;7.57;100.00;99974.97;4916337;29;20225;-74
2022/11/18 08:01:30;;;;;;;21.10;8.63;;;;;;;7.81;100.00;99983.13;4926171;29;20036;-73
2022/11/18 08:03:57;;;;;;;19.17;9.38;;;;;;;7.81;100.00;99983.13;4909978;29;20043;-73
2022/11/18 08:06:23;;;;;;;24.05;10.10;;;;;;;7.87;100.00;99993.34;4927378;29;20055;-73
2022/11/18 08:08:48;;;;;;;22.20;9.13;;;;;;;7.94;100.00;99993.81;4938980;29;20047;-74
2022/11/18 08:11:18;;;;;;;24.25;9.30;;;;;;;8.02;100.00;99992.31;4931925;29;20052;-73
2022/11/18 08:13:44;;;;;;;19.15;8.15;;;;;;;8.06;100.00;99992.97;4929081;29;20047;-73
2022/11/18 08:16:21;;;;;;;19.30;9.27;;;;;;;8.00;100.00;99999.53;4911396;29;20695;-74
2022/11/18 08:18:47;;;;;;;23.02;7.75;;;;;;;7.96;100.00;100000.69;4905586;29;20052;-73
2022/11/18 08:21:13;;;;;;;17.00;7.82;;;;;;;7.94;100.00;100007.91;4934270;29;20271;-74
2022/11/18 08:23:39;;;;;;;15.15;7.13;;;;;;;7.98;100.00;100006.78;4927876;29;20036;-74
2022/11/18 08:26:07;;;;;;;15.57;5.82;;;;;;;7.89;100.00;100015.34;4934922;29;20047;-74
2022/11/18 08:28:33;;;;;;;14.32;7.30;;;;;;;7.88;100.00;100018.06;4925832;29;20071;-73
2022/11/18 08:30:59;;;;;;;19.67;7.18;;;;;;;7.87;100.00;100017.22;4913434;29;20043;-73
2022/11/18 08:33:24;;;;;;;14.32;6.70;;;;;;;7.93;100.00;100018.63;4940647;29;20047;-74
2022/11/18 08:35:50;;;;;;;13.65;7.10;;;;;;;7.92;100.00;100025.72;4925810;29;20071;-73
2022/11/18 08:38:16;;;;;;;21.63;8.27;;;;;;;7.86;100.00;100028.78;4925638;29;20108;-74
2022/11/18 08:40:45;;;;;;;11.90;6.32;;;;;;;7.94;100.00;100023.00;4926624;29;20047;-74
2022/11/18 08:43:11;;;;;;;15.25;6.13;;;;;;;8.07;100.00;100034.50;4941483;29;20043;-74
2022/11/18 08:45:39;;;;;;;19.75;6.70;;;;;;;7.99;100.00;100034.16;4942645;29;20046;-73
2022/11/18 08:48:05;;;;;;;14.25;7.30;;;;;;;8.02;100.00;100031.28;4925845;29;20044;-74
2022/11/18 08:50:30;;;;;;;19.63;7.35;;;;;;;8.07;100.00;100033.66;4919628;29;20047;-73
2022/11/18 08:52:56;;;;;;;13.65;6.57;;;;;;;8.11;100.00;100029.84;4929200;29;20075;-74
2022/11/18 08:55:21;;;;;;;17.67;7.35;;;;;;;8.12;100.00;100028.88;4927116;29;20047;-74
2022/11/18 08:57:47;;;;;;;11.95;6.47;;;;;;;8.18;100.00;100032.00;4912912;29;20050;-73
2022/11/18 09:00:13;;;;;;;14.35;6.30;;;;;;;8.18;100.00;100034.66;4933951;29;20051;-73
2022/11/18 09:02:38;;;;;;;12.25;7.30;;;;;;;8.19;100.00;100043.47;4921728;29;20731;-74
2022/11/18 09:05:04;;;;;;;21.33;8.02;;;;;;;8.30;100.00;100048.91;4926033;29;20060;-73
2022/11/18 09:07:29;;;;;;;11.88;6.03;;;;;;;8.30;100.00;100059.53;4908648;29;20496;-73
2022/11/18 09:09:55;;;;;;;14.00;6.47;;;;;;;8.22;100.00;100057.38;4925081;29;20047;-73
2022/11/18 09:12:20;;;;;;;12.13;7.32;;;;;;;8.29;100.00;100055.19;4927607;29;20039;-74
2022/11/18 09:14:46;;;;;;;13.93;5.45;;;;;;;8.40;100.00;100052.69;4924817;29;20032;-74
2022/11/18 09:17:13;;;;;;;15.02;6.97;;;;;;;8.46;100.00;100054.06;4939677;28;20815;-74
2022/11/18 09:19:39;;;;;;;17.90;8.35;;;;;;;8.38;100.00;100059.03;4931613;29;20508;-73
2022/11/18 09:22:05;;;;;;;15.73;6.70;;;;;;;8.40;100.00;100060.66;4932264;29;20035;-73
2022/11/18 09:24:31;;;;;;;20.45;6.82;;;;;;;8.39;100.00;100060.78;4943965;28;20043;-74
2022/11/18 09:26:57;;;;;;;12.57;6.10;;;;;;;8.51;100.00;100058.13;4933778;29;20035;-74
2022/11/18 09:29:24;;;;;;;13.45;5.80;;;;;;;8.61;100.00;100069.00;4931316;29;20814;-73
2022/11/18 09:31:51;;;;;;;14.80;5.63;;;;;;;8.45;100.00;100063.00;4914278;29;20046;-73
2022/11/18 09:34:17;;;;;;;14.15;5.70;;;;;;;8.56;100.00;100071.09;4916059;29;20044;-74
2022/11/18 09:36:43;;;;;;;11.55;6.30;;;;;;;8.52;100.00;100070.44;4911899;29;20157;-73
2022/11/18 09:39:08;;;;;;;13.00;5.97;;;;;;;8.60;100.00;100072.59;4906473;29;20635;-74
2022/11/18 09:41:46;;;;;;;17.45;5.78;;;;;;;8.47;100.00;100077.03;4906227;29;20180;-73
2022/11/18 09:44:29;;;;;;;13.57;5.60;;;;;;;8.49;100.00;100083.13;4906171;29;20035;-74
2022/11/18 09:47:24;;;;;;;9.98;5.22;;;;;;;8.53;100.00;100076.59;4923090;29;20048;-75
2022/11/18 09:49:50;;;;;;;10.73;5.50;;;;;;;8.49;100.00;100085.78;4921329;29;20039;-73
2022/11/18 09:52:22;;;;;;;12.02;5.70;;;;;;;8.51;100.00;100092.66;4934924;29;20051;-74
2022/11/18 09:54:48;;;;;;;15.65;6.00;;;;;;;8.52;100.00;100104.13;4931428;29;20055;-73
2022/11/18 09:57:24;;;;;;;11.77;4.75;;;;;;;8.51;100.00;100108.59;4922991;29;20103;-73
2022/11/18 09:59:50;;;;;;;12.93;5.55;;;;;;;8.53;100.00;100111.16;4935059;29;20047;-74
2022/11/18 10:02:26;;;;;;;11.48;5.55;;;;;;;8.61;100.00;100115.97;4923605;29;20050;-74
2022/11/18 10:04:54;;;;;;;16.92;6.88;;;;;;;8.77;100.00;100108.66;4935661;29;20039;-73
2022/11/18 10:07:55;;;;;;;10.93;6.30;;;;;;;8.75;100.00;100116.75;4945978;28;20040;-73
2022/11/18 10:10:46;;;;;;;10.60;5.40;;;;;;;8.75;100.00;100115.91;4936068;29;20039;-72
2022/11/18 10:13:37;;;;;;;11.50;5.75;;;;;;;8.85;100.00;100124.09;4934782;28;20055;-73
2022/11/18 10:16:18;;;;;;;15.27;5.80;;;;;;;8.90;100.00;100125.50;4909815;29;20066;-74
2022/11/18 10:19:02;;;;;;;13.20;4.85;;;;;;;8.96;100.00;100130.38;4919748;29;20051;-74
2022/11/18 10:21:54;;;;;;;15.80;6.18;;;;;;;9.13;100.00;100136.34;4922966;29;20058;-74
2022/11/18 10:24:23;;;;;;;11.07;5.13;;;;;;;8.90;100.00;100135.28;4913563;29;20102;-74
2022/11/18 10:26:55;;;;;;;12.85;5.65;;;;;;;9.02;100.00;100139.75;4931229;29;20125;-75
2022/11/18 10:29:21;;;;;;;;;;;;;;;9.14;100.00;100146.06;4924436;29;20044;-74
2022/11/18 10:32:03;;;;;;;7.32;4.80;;;;;;;9.02;100.00;100145.06;4931595;29;20064;-74
2022/11/18 10:34:30;;;;;;;15.32;5.50;;;;;;;9.14;100.00;100149.56;4929767;29;20044;-75
2022/11/18 10:37:04;;;;;;;13.10;5.45;;;;;;;9.03;100.00;100149.44;4924369;29;20052;-74
2022/11/18 10:39:30;;;;;;;17.13;6.55;;;;;;;9.10;100.00;100155.19;4920258;29;20042;-74
2022/11/18 10:42:03;;;;;;;11.45;5.53;;;;;;;9.25;100.00;100151.50;4921319;29;20047;-74
2022/11/18 10:44:39;;;;;;;15.02;5.22;;;;;;;9.33;100.00;100154.44;4922140;29;20071;-74
2022/11/18 10:47:25;;;;;;;12.77;5.38;;;;;;;9.61;100.00;100153.38;4904534;29;20047;-74
2022/11/18 10:49:52;;;;;;;13.32;6.35;;;;;;;9.72;100.00;100149.97;4908670;29;20050;-74
2022/11/18 10:52:18;;;;;;;16.02;6.03;;;;;;;9.59;100.00;100152.66;4922922;29;20217;-74
2022/11/18 10:54:44;;;;;;;9.80;6.03;;;;;;;9.65;100.00;100151.38;4921905;29;20118;-75
2022/11/18 10:57:09;;;;;;;12.68;6.05;;;;;;;9.39;100.00;100151.38;4936526;29;20035;-76
2022/11/18 10:59:52;;;;;;;15.65;5.65;;;;;;;9.37;100.00;100155.94;4904094;29;20040;-74
2022/11/18 11:02:39;;;;;;;15.00;5.60;;;;;;;9.44;100.00;100151.91;4924329;29;20047;-74
2022/11/18 11:05:25;;;;;;;10.82;5.43;;;;;;;9.58;100.00;100158.91;4924850;29;20082;-74
2022/11/18 11:08:05;;;;;;;12.55;5.50;;;;;;;9.62;100.00;100155.09;4927177;29;20047;-73
2022/11/18 11:10:31;;;;;;;12.20;6.97;;;;;;;9.58;100.00;100154.44;4927216;29;20038;-73
2022/11/18 11:13:02;;;;;;;13.55;5.60;;;;;;;9.65;100.00;100159.34;4930174;29;20471;-73
2022/11/18 11:15:36;;;;;;;13.77;5.80;;;;;;;9.67;100.00;100157.41;4929087;29;20036;-73
2022/11/18 11:20:53;;;;;;;15.27;6.40;;;;;;;9.60;100.00;100162.34;4936161;29;20119;-74
2022/11/18 11:23:19;;;;;;;11.13;7.05;;;;;;;9.55;100.00;100167.97;4928892;29;20146;-75
2022/11/18 11:25:48;;;;;;;14.45;6.40;;;;;;;9.54;100.00;100157.44;4917853;29;20102;-74
2022/11/18 11:28:35;;;;;;;14.18;6.47;;;;;;;9.34;100.00;100167.66;4928882;29;20058;-75
2022/11/18 11:31:34;;;;;;;13.00;6.57;;;;;;;9.50;100.00;100162.13;4928583;29;20847;-75
2022/11/18 11:34:38;;;;;;;12.25;6.32;;;;;;;9.66;100.00;100169.03;4928009;29;20047;-74
2022/11/18 11:37:23;;;;;;;13.38;6.85;;;;;;;9.67;100.00;100168.91;4937143;29;20042;-74
2022/11/18 11:39:51;;;;;;;13.77;7.07;;;;;;;9.71;100.00;100174.88;4935315;28;20046;-74
2022/11/18 11:42:58;;;;;;;10.63;6.30;;;;;;;9.82;100.00;100180.31;4930356;29;20075;-74
2022/11/18 11:45:30;;;;;;;19.58;6.57;;;;;;;9.73;100.00;100176.47;4896682;29;20055;-74
2022/11/18 11:48:17;;;;;;;13.88;7.72;;;;;;;9.77;100.00;100174.44;4926687;29;20082;-75
2022/11/18 11:51:02;;;;;;;12.55;7.22;;;;;;;9.85;100.00;100169.44;4908419;29;20111;-75
2022/11/18 11:53:54;;;;;;;14.57;6.80;;;;;;;9.94;100.00;100179.44;4925336;29;20879;-74